Time;durP1;ratioP1;P1;durP2;ratioP2;P2;SDS_P1;SDS_P2;PMS_P1;PMS_P2;Temp;Humidity;BMP_temperature;BMP_pressure;BME280_temperature;BME280_humidity;BME280_pressure;Samples;Min_cycle;Max_cycle;Signal;HPM_P1;HPM_P2
2021/09/21 00:00:14;;;;;;;7.17;5.43;;;;;;;;;;5093281;28;20436;-72
2021/09/21 00:02:41;;;;;;;6.83;5.47;;;;;;;;;;5093240;28;20448;-71
2021/09/21 00:05:09;;;;;;;6.60;6.00;;;;;;;;;;5093255;28;20483;-72
2021/09/21 00:07:36;;;;;;;6.77;5.07;;;;;;;;;;5093553;28;20450;-71
2021/09/21 00:10:04;;;;;;;5.60;5.00;;;;;;;;;;5093711;28;20489;-72
2021/09/21 00:12:31;;;;;;;9.10;6.60;;;;;;;;;;5093524;28;20519;-71
2021/09/21 00:14:59;;;;;;;6.70;4.90;;;;;;;;;;5093451;28;20437;-71
2021/09/21 00:17:27;;;;;;;6.90;5.30;;;;;;;;;;5093029;28;20450;-71
2021/09/21 00:19:54;;;;;;;7.77;5.20;;;;;;;;;;5093106;28;20924;-71
2021/09/21 00:22:21;;;;;;;5.70;4.97;;;;;;;;;;5093678;28;20813;-72
2021/09/21 00:24:48;;;;;;;10.83;5.63;;;;;;;;;;5093100;28;20560;-72
2021/09/21 00:27:15;;;;;;;8.00;4.93;;;;;;;;;;5093450;28;20530;-72
2021/09/21 00:29:44;;;;;;;7.53;5.50;;;;;;;;;;5093436;28;20463;-72
2021/09/21 00:32:16;;;;;;;6.30;5.70;;;;;;;;;;5093268;28;20488;-72
2021/09/21 00:34:44;;;;;;;6.40;5.37;;;;;;;;;;5094633;28;20574;-72
2021/09/21 00:37:12;;;;;;;7.43;6.60;;;;;;;;;;5097235;28;20948;-72
2021/09/21 00:39:39;;;;;;;6.07;4.93;;;;;;;;;;5097087;28;20467;-71
2021/09/21 00:42:07;;;;;;;6.50;4.93;;;;;;;;;;5097158;28;20534;-72
2021/09/21 00:44:35;;;;;;;6.80;6.00;;;;;;;;;;5096756;28;20443;-73
2021/09/21 00:47:02;;;;;;;6.60;5.90;;;;;;;;;;5096730;28;20501;-72
2021/09/21 00:49:32;;;;;;;6.40;5.20;;;;;;;;;;5096953;28;20444;-72
2021/09/21 00:51:59;;;;;;;9.97;6.10;;;;;;;;;;5096887;28;20466;-72
2021/09/21 00:54:26;;;;;;;6.70;6.00;;;;;;;;;;5096872;28;20439;-73
2021/09/21 00:56:54;;;;;;;9.80;5.70;;;;;;;;;;5096508;28;20439;-73
2021/09/21 00:59:21;;;;;;;8.23;6.33;;;;;;;;;;5096279;28;20566;-72
2021/09/21 01:01:49;;;;;;;7.27;5.57;;;;;;;;;;5096971;28;20881;-72
2021/09/21 01:04:17;;;;;;;6.93;5.93;;;;;;;;;;5096392;28;20996;-72
2021/09/21 01:06:45;;;;;;;7.87;5.63;;;;;;;;;;5096007;28;20437;-71
2021/09/21 01:09:17;;;;;;;16.23;6.43;;;;;;;;;;5096470;28;20940;-72
2021/09/21 01:11:46;;;;;;;6.60;5.43;;;;;;;;;;5096474;28;20416;-72
2021/09/21 01:14:13;;;;;;;7.30;5.50;;;;;;;;;;5096044;28;20443;-73
2021/09/21 01:16:40;;;;;;;8.30;6.37;;;;;;;;;;5095569;28;20431;-72
2021/09/21 01:19:08;;;;;;;7.70;6.43;;;;;;;;;;5095505;28;20483;-72
2021/09/21 01:21:36;;;;;;;6.97;6.27;;;;;;;;;;5095891;28;20486;-72
2021/09/21 01:24:04;;;;;;;7.50;5.90;;;;;;;;;;5095629;28;20474;-73
2021/09/21 01:26:31;;;;;;;7.13;6.20;;;;;;;;;;5095794;28;20825;-72
2021/09/21 01:28:58;;;;;;;8.10;7.10;;;;;;;;;;5095834;28;20993;-72
2021/09/21 01:31:26;;;;;;;7.67;5.43;;;;;;;;;;5095690;28;20447;-74
2021/09/21 01:33:53;;;;;;;11.13;6.60;;;;;;;;;;5095641;28;20788;-72
2021/09/21 01:36:22;;;;;;;6.90;6.00;;;;;;;;;;5095548;28;20784;-72
2021/09/21 01:38:51;;;;;;;8.40;6.50;;;;;;;;;;5095152;28;20490;-72
2021/09/21 01:41:19;;;;;;;6.10;5.50;;;;;;;;;;5095263;28;20950;-72
2021/09/21 01:43:46;;;;;;;9.33;5.87;;;;;;;;;;5095656;28;20543;-72
2021/09/21 01:46:14;;;;;;;8.10;6.70;;;;;;;;;;5095318;28;20443;-71
2021/09/21 01:48:42;;;;;;;8.20;5.83;;;;;;;;;;5095085;28;20443;-71
2021/09/21 01:51:11;;;;;;;8.50;6.40;;;;;;;;;;5095371;28;20530;-71
2021/09/21 01:53:43;;;;;;;9.60;7.07;;;;;;;;;;5095299;28;20490;-71
2021/09/21 01:58:56;;;;;;;9.73;6.47;;;;;;;;;;5095416;28;20478;-71
2021/09/21 02:01:25;;;;;;;10.10;7.10;;;;;;;;;;5095138;28;20438;-71
2021/09/21 02:03:53;;;;;;;11.27;7.30;;;;;;;;;;5095158;28;20440;-71
2021/09/21 02:06:23;;;;;;;8.90;6.37;;;;;;;;;;5095067;28;20801;-73
2021/09/21 02:08:50;;;;;;;9.37;7.03;;;;;;;;;;5094660;28;20434;-71
2021/09/21 02:11:19;;;;;;;6.90;6.20;;;;;;;;;;5094954;28;20849;-72
2021/09/21 02:13:46;;;;;;;7.83;5.77;;;;;;;;;;5094812;28;20440;-71
2021/09/21 02:16:13;;;;;;;8.73;6.77;;;;;;;;;;5094553;28;20444;-72
2021/09/21 02:18:41;;;;;;;9.20;6.97;;;;;;;;;;5094412;28;20476;-71
2021/09/21 02:21:08;;;;;;;10.40;7.73;;;;;;;;;;5094748;28;20540;-72
2021/09/21 02:23:35;;;;;;;9.00;7.50;;;;;;;;;;5094726;28;20439;-72
2021/09/21 02:26:02;;;;;;;11.00;8.37;;;;;;;;;;5094669;28;20462;-71
2021/09/21 02:28:31;;;;;;;10.67;8.07;;;;;;;;;;5094954;28;20506;-71
2021/09/21 02:30:58;;;;;;;9.93;6.83;;;;;;;;;;5094574;28;20442;-71
2021/09/21 02:33:25;;;;;;;11.83;7.73;;;;;;;;;;5094644;28;20985;-72
2021/09/21 02:35:53;;;;;;;10.97;8.13;;;;;;;;;;5094483;28;20442;-71
2021/09/21 02:38:20;;;;;;;8.83;6.70;;;;;;;;;;5095098;28;20523;-71
2021/09/21 02:40:47;;;;;;;11.50;7.63;;;;;;;;;;5094473;28;20447;-71
2021/09/21 02:43:15;;;;;;;8.07;6.83;;;;;;;;;;5094057;28;20442;-71
2021/09/21 02:45:43;;;;;;;9.50;6.60;;;;;;;;;;5093959;28;20448;-71
2021/09/21 02:48:10;;;;;;;10.27;7.30;;;;;;;;;;5094267;28;20443;-71
2021/09/21 02:50:38;;;;;;;9.07;7.27;;;;;;;;;;5094546;28;20473;-73
2021/09/21 02:53:05;;;;;;;10.07;7.63;;;;;;;;;;5094109;28;20439;-72
2021/09/21 02:55:33;;;;;;;12.20;7.43;;;;;;;;;;5094161;28;20477;-72
2021/09/21 02:58:00;;;;;;;12.70;7.47;;;;;;;;;;5092965;28;20450;-72
2021/09/21 03:00:28;;;;;;;9.70;7.57;;;;;;;;;;5093811;28;20493;-72
2021/09/21 03:03:01;;;;;;;8.20;7.40;;;;;;;;;;5093653;28;20447;-71
2021/09/21 03:05:30;;;;;;;13.53;7.53;;;;;;;;;;5093666;28;20905;-71
2021/09/21 03:08:00;;;;;;;8.77;7.87;;;;;;;;;;5093882;28;20478;-71
2021/09/21 03:10:36;;;;;;;10.90;7.67;;;;;;;;;;5093784;28;20446;-71
2021/09/21 03:18:31;;;;;;;14.07;8.40;;;;;;;;;;5093503;28;20445;-71
2021/09/21 03:20:58;;;;;;;9.07;7.30;;;;;;;;;;5093692;28;20439;-71
2021/09/21 03:23:26;;;;;;;9.27;7.40;;;;;;;;;;5093556;28;20455;-71
2021/09/21 03:25:53;;;;;;;12.17;9.00;;;;;;;;;;5093243;28;20447;-71
2021/09/21 03:28:21;;;;;;;10.10;8.10;;;;;;;;;;5093254;28;20574;-72
2021/09/21 03:30:48;;;;;;;9.80;8.10;;;;;;;;;;5093557;28;20438;-71
2021/09/21 03:33:15;;;;;;;10.50;8.57;;;;;;;;;;5093511;28;21006;-72
2021/09/21 03:35:44;;;;;;;13.40;8.13;;;;;;;;;;5093451;28;20512;-72
2021/09/21 03:38:11;;;;;;;12.80;8.40;;;;;;;;;;5093074;28;20526;-71
2021/09/21 03:40:39;;;;;;;14.70;9.83;;;;;;;;;;5093049;28;20994;-72
2021/09/21 03:43:06;;;;;;;12.27;8.50;;;;;;;;;;5092979;28;20541;-72
2021/09/21 03:45:34;;;;;;;10.70;8.50;;;;;;;;;;5093461;28;20872;-72
2021/09/21 03:48:01;;;;;;;15.00;9.33;;;;;;;;;;5093724;28;20781;-71
2021/09/21 03:50:28;;;;;;;14.00;9.83;;;;;;;;;;5093310;28;20449;-71
2021/09/21 03:52:57;;;;;;;10.40;9.10;;;;;;;;;;5092789;28;20446;-71
2021/09/21 03:55:24;;;;;;;11.30;9.03;;;;;;;;;;5093669;28;20443;-71
2021/09/21 03:57:51;;;;;;;11.10;9.20;;;;;;;;;;5092951;28;20813;-71
2021/09/21 04:00:19;;;;;;;16.13;9.27;;;;;;;;;;5093144;28;20475;-72
2021/09/21 04:02:46;;;;;;;11.40;9.37;;;;;;;;;;5092688;28;20447;-71
2021/09/21 04:05:13;;;;;;;13.30;10.23;;;;;;;;;;5093029;28;20442;-71
2021/09/21 04:07:41;;;;;;;10.87;9.60;;;;;;;;;;5084883;28;20450;-72
2021/09/21 04:10:10;;;;;;;13.53;10.00;;;;;;;;;;5075684;28;20860;-71
2021/09/21 04:12:37;;;;;;;11.50;9.17;;;;;;;;;;5075972;28;20929;-69
2021/09/21 04:15:05;;;;;;;16.70;10.43;;;;;;;;;;5076461;28;20438;-71
2021/09/21 04:17:32;;;;;;;13.40;9.57;;;;;;;;;;5076790;28;20794;-69
2021/09/21 04:19:59;;;;;;;11.50;9.50;;;;;;;;;;5076333;28;20505;-70
2021/09/21 04:22:27;;;;;;;12.70;9.67;;;;;;;;;;5076473;28;20201;-69
2021/09/21 04:24:55;;;;;;;15.10;9.30;;;;;;;;;;5076890;28;20463;-69
2021/09/21 04:27:23;;;;;;;10.73;8.75;;;;;;;;;;5076340;28;20454;-69
2021/09/21 04:29:55;;;;;;;14.83;10.20;;;;;;;;;;5076761;28;20214;-70
2021/09/21 04:32:22;;;;;;;11.93;9.13;;;;;;;;;;5076721;28;20955;-69
2021/09/21 04:34:50;;;;;;;13.60;10.60;;;;;;;;;;5076402;28;20924;-69
2021/09/21 04:37:17;;;;;;;11.60;9.40;;;;;;;;;;5076333;28;20446;-69
2021/09/21 04:39:45;;;;;;;11.77;10.52;;;;;;;;;;5075831;28;20243;-69
2021/09/21 04:42:12;;;;;;;13.95;10.80;;;;;;;;;;5076367;28;20190;-69
2021/09/21 04:44:41;;;;;;;14.70;12.07;;;;;;;;;;5076071;28;20596;-69
2021/09/21 04:47:08;;;;;;;12.65;10.02;;;;;;;;;;5076257;28;20462;-69
2021/09/21 04:49:36;;;;;;;16.53;9.47;;;;;;;;;;5076315;28;20203;-69
2021/09/21 04:52:03;;;;;;;14.63;9.90;;;;;;;;;;5076133;28;20444;-70
2021/09/21 04:54:30;;;;;;;14.47;9.93;;;;;;;;;;5075847;28;20948;-70
2021/09/21 04:56:57;;;;;;;12.47;10.97;;;;;;;;;;5075781;28;20444;-69
2021/09/21 04:59:26;;;;;;;16.60;10.93;;;;;;;;;;5075514;28;20514;-69
2021/09/21 05:01:55;;;;;;;13.13;9.47;;;;;;;;;;5075807;28;20526;-69
2021/09/21 05:04:22;;;;;;;17.67;13.65;;;;;;;;;;5075811;28;20444;-69
2021/09/21 05:06:49;;;;;;;14.80;11.15;;;;;;;;;;5075872;28;20196;-68
2021/09/21 05:09:16;;;;;;;14.10;10.88;;;;;;;;;;5076476;28;20194;-68
2021/09/21 05:11:45;;;;;;;17.27;11.60;;;;;;;;;;5076084;28;20196;-68
2021/09/21 05:14:12;;;;;;;14.93;12.50;;;;;;;;;;5075717;28;20452;-69
2021/09/21 05:16:39;;;;;;;14.73;11.77;;;;;;;;;;5076404;28;20443;-68
2021/09/21 05:19:11;;;;;;;21.30;13.37;;;;;;;;;;5075800;28;20931;-69
2021/09/21 05:21:38;;;;;;;17.75;12.88;;;;;;;;;;5074484;28;20459;-69
2021/09/21 05:24:06;;;;;;;16.23;12.37;;;;;;;;;;5075607;28;20285;-68
2021/09/21 05:26:33;;;;;;;16.13;11.90;;;;;;;;;;5075798;28;20469;-69
2021/09/21 05:29:00;;;;;;;20.10;14.43;;;;;;;;;;5075629;28;20564;-69
2021/09/21 05:31:28;;;;;;;16.50;12.53;;;;;;;;;;5075556;28;20973;-69
2021/09/21 05:33:55;;;;;;;19.27;13.05;;;;;;;;;;5075249;28;20534;-69
2021/09/21 05:36:23;;;;;;;18.85;12.80;;;;;;;;;;5075955;28;20287;-69
2021/09/21 05:38:51;;;;;;;19.13;11.63;;;;;;;;;;5075339;28;20200;-68
2021/09/21 05:41:18;;;;;;;17.00;13.10;;;;;;;;;;5075527;28;20508;-69
2021/09/21 05:43:45;;;;;;;17.75;13.55;;;;;;;;;;5075865;28;20444;-69
2021/09/21 05:46:12;;;;;;;17.97;12.60;;;;;;;;;;5075515;28;20202;-69
2021/09/21 05:48:40;;;;;;;16.23;12.00;;;;;;;;;;5075132;28;20443;-69
2021/09/21 05:51:07;;;;;;;17.00;12.50;;;;;;;;;;5075526;28;20455;-70
2021/09/21 05:53:35;;;;;;;16.87;13.53;;;;;;;;;;5075609;28;20231;-68
2021/09/21 05:56:02;;;;;;;17.30;11.88;;;;;;;;;;5075631;28;20447;-68
2021/09/21 05:58:30;;;;;;;16.00;13.63;;;;;;;;;;5075159;28;20661;-69
2021/09/21 06:00:58;;;;;;;21.73;16.37;;;;;;;;;;5074854;28;20997;-69
2021/09/21 06:03:25;;;;;;;17.73;13.40;;;;;;;;;;5075383;28;20473;-69
2021/09/21 06:05:52;;;;;;;13.70;11.90;;;;;;;;;;5075139;28;20198;-69
2021/09/21 06:08:19;;;;;;;20.53;12.73;;;;;;;;;;5075000;28;20548;-70
2021/09/21 06:10:48;;;;;;;17.10;12.50;;;;;;;;;;5075222;28;20509;-69
2021/09/21 06:13:15;;;;;;;14.63;12.87;;;;;;;;;;5075031;28;20531;-69
2021/09/21 06:15:42;;;;;;;16.63;12.23;;;;;;;;;;5074661;28;20963;-69
2021/09/21 06:18:10;;;;;;;17.30;12.53;;;;;;;;;;5074611;28;20436;-69
2021/09/21 06:20:39;;;;;;;17.60;12.80;;;;;;;;;;5074496;28;20478;-69
2021/09/21 06:23:06;;;;;;;26.53;12.20;;;;;;;;;;5074809;28;20467;-69
2021/09/21 06:25:34;;;;;;;15.67;12.63;;;;;;;;;;5074549;28;20954;-69
2021/09/21 06:28:02;;;;;;;13.93;11.57;;;;;;;;;;5074400;28;20476;-70
2021/09/21 06:30:30;;;;;;;13.70;12.03;;;;;;;;;;5074820;28;20444;-70
2021/09/21 06:32:57;;;;;;;14.50;11.57;;;;;;;;;;5074571;28;20531;-69
2021/09/21 06:35:24;;;;;;;14.30;12.40;;;;;;;;;;5074260;28;20444;-70
2021/09/21 06:37:52;;;;;;;17.40;11.30;;;;;;;;;;5074507;28;20444;-69
2021/09/21 06:40:19;;;;;;;13.97;12.30;;;;;;;;;;5074431;28;20475;-69
2021/09/21 06:42:48;;;;;;;15.33;11.53;;;;;;;;;;5074987;28;20831;-69
2021/09/21 06:45:17;;;;;;;27.37;18.60;;;;;;;;;;5074390;28;20440;-70
2021/09/21 06:47:45;;;;;;;13.97;12.30;;;;;;;;;;5074165;28;20432;-69
2021/09/21 06:50:13;;;;;;;12.20;10.60;;;;;;;;;;5074412;28;20447;-69
2021/09/21 06:52:40;;;;;;;14.50;11.60;;;;;;;;;;5074055;28;20443;-68
2021/09/21 06:55:08;;;;;;;14.87;11.33;;;;;;;;;;5074323;28;20436;-69
2021/09/21 06:57:35;;;;;;;17.53;10.77;;;;;;;;;;5074172;28;20451;-69
2021/09/21 07:00:03;;;;;;;13.83;11.40;;;;;;;;;;5073798;28;20574;-69
2021/09/21 07:02:31;;;;;;;22.50;11.03;;;;;;;;;;5074333;28;20441;-69
2021/09/21 07:04:58;;;;;;;12.30;10.10;;;;;;;;;;5073869;28;20439;-70
2021/09/21 07:07:26;;;;;;;17.83;10.57;;;;;;;;;;5073802;28;20448;-70
2021/09/21 07:09:53;;;;;;;14.63;10.13;;;;;;;;;;5074051;28;20539;-68
2021/09/21 07:12:20;;;;;;;12.90;9.43;;;;;;;;;;5074087;28;21012;-69
2021/09/21 07:14:47;;;;;;;11.40;9.80;;;;;;;;;;5074034;28;20472;-69
2021/09/21 07:17:14;;;;;;;17.03;12.73;;;;;;;;;;5073635;28;20451;-69
2021/09/21 07:19:43;;;;;;;15.67;9.67;;;;;;;;;;5074036;28;20451;-70
2021/09/21 07:22:10;;;;;;;15.83;10.30;;;;;;;;;;5074149;28;20550;-70
2021/09/21 07:24:37;;;;;;;15.20;9.70;;;;;;;;;;5073447;28;20484;-71
2021/09/21 07:27:05;;;;;;;11.57;9.10;;;;;;;;;;5073449;28;20476;-69
2021/09/21 07:29:32;;;;;;;11.30;9.33;;;;;;;;;;5073462;28;20563;-69
2021/09/21 07:31:59;;;;;;;10.77;9.57;;;;;;;;;;5073763;28;20800;-69
2021/09/21 07:34:26;;;;;;;13.70;9.30;;;;;;;;;;5074252;28;20451;-69
2021/09/21 07:36:55;;;;;;;12.93;9.50;;;;;;;;;;5073347;28;20447;-69
2021/09/21 07:39:22;;;;;;;11.40;9.30;;;;;;;;;;5073290;28;20447;-69
2021/09/21 07:41:49;;;;;;;13.70;9.97;;;;;;;;;;5073879;28;20503;-69
2021/09/21 07:44:17;;;;;;;12.70;9.80;;;;;;;;;;5073775;28;20441;-69
2021/09/21 07:46:44;;;;;;;11.90;10.40;;;;;;;;;;5073196;28;20472;-70
2021/09/21 07:49:11;;;;;;;12.70;10.10;;;;;;;;;;5073489;28;20494;-69
2021/09/21 07:51:38;;;;;;;13.60;8.80;;;;;;;;;;5074027;28;20483;-69
2021/09/21 07:54:08;;;;;;;10.17;8.43;;;;;;;;;;5073521;28;20797;-69
2021/09/21 07:56:36;;;;;;;16.10;9.20;;;;;;;;;;5073943;28;20448;-69
2021/09/21 07:59:05;;;;;;;10.90;8.87;;;;;;;;;;5073937;28;20797;-69
2021/09/21 08:01:32;;;;;;;14.73;9.73;;;;;;;;;;5073355;28;20482;-69
2021/09/21 08:04:00;;;;;;;11.03;8.87;;;;;;;;;;5073104;28;20946;-69
2021/09/21 08:06:27;;;;;;;13.80;10.27;;;;;;;;;;5073482;28;20527;-69
2021/09/21 08:08:54;;;;;;;11.10;8.47;;;;;;;;;;5073218;28;20440;-69
2021/09/21 08:11:23;;;;;;;9.80;8.80;;;;;;;;;;5072897;28;20926;-70
2021/09/21 08:13:50;;;;;;;11.53;9.43;;;;;;;;;;5072808;28;20540;-69
2021/09/21 08:16:17;;;;;;;17.03;7.80;;;;;;;;;;5073314;28;20520;-70
2021/09/21 08:18:45;;;;;;;10.50;7.77;;;;;;;;;;5072746;28;20440;-69
2021/09/21 08:21:12;;;;;;;13.43;8.70;;;;;;;;;;5073788;28;20477;-70
2021/09/21 08:23:39;;;;;;;10.27;6.30;;;;;;;;;;5073155;28;20480;-69
2021/09/21 08:26:06;;;;;;;9.90;8.13;;;;;;;;;;5073035;28;20539;-69
2021/09/21 08:28:35;;;;;;;13.63;8.30;;;;;;;;;;5072975;28;20465;-70
2021/09/21 08:31:02;;;;;;;8.77;7.77;;;;;;;;;;5072768;28;20440;-70
2021/09/21 08:33:29;;;;;;;17.07;8.10;;;;;;;;;;5073100;28;20478;-69
2021/09/21 08:35:57;;;;;;;14.43;9.00;;;;;;;;;;5073366;28;20445;-70
2021/09/21 08:38:24;;;;;;;13.90;9.30;;;;;;;;;;5073054;28;20485;-69
2021/09/21 08:40:51;;;;;;;10.23;8.00;;;;;;;;;;5072873;28;20594;-69
2021/09/21 08:43:18;;;;;;;10.47;9.20;;;;;;;;;;5073223;28;20438;-69
2021/09/21 08:45:47;;;;;;;12.63;9.07;;;;;;;;;;5073176;28;20523;-69
2021/09/21 08:48:14;;;;;;;12.50;7.47;;;;;;;;;;5073390;28;20433;-69
2021/09/21 08:50:41;;;;;;;9.50;8.43;;;;;;;;;;5073208;28;20517;-69
2021/09/21 08:53:09;;;;;;;12.57;9.17;;;;;;;;;;5073245;28;20532;-69
2021/09/21 08:55:36;;;;;;;9.03;7.77;;;;;;;;;;5073826;28;20441;-69
2021/09/21 08:58:03;;;;;;;13.70;8.70;;;;;;;;;;5076243;28;20440;-69
2021/09/21 09:00:32;;;;;;;11.10;7.43;;;;;;;;;;5076381;28;20582;-69
2021/09/21 09:03:08;;;;;;;11.10;7.37;;;;;;;;;;5076914;28;20973;-69
2021/09/21 09:05:45;;;;;;;10.57;7.33;;;;;;;;;;5076418;28;20931;-69
2021/09/21 09:08:13;;;;;;;8.63;6.87;;;;;;;;;;5076375;28;20469;-69
2021/09/21 09:10:40;;;;;;;7.60;6.23;;;;;;;;;;5076256;28;20441;-70
2021/09/21 09:13:17;;;;;;;8.40;6.57;;;;;;;;;;5075946;28;20480;-70
2021/09/21 09:15:52;;;;;;;8.80;5.50;;;;;;;;;;5076369;28;20446;-70
2021/09/21 09:18:25;;;;;;;7.00;6.30;;;;;;;;;;5076412;28;20435;-69
2021/09/21 09:20:52;;;;;;;7.97;7.27;;;;;;;;;;5076328;28;20579;-70
2021/09/21 09:23:19;;;;;;;8.80;6.83;;;;;;;;;;5076401;28;20436;-70
2021/09/21 09:25:47;;;;;;;6.33;5.73;;;;;;;;;;5076554;28;20447;-69
2021/09/21 09:28:16;;;;;;;6.30;4.57;;;;;;;;;;5075999;28;20509;-70
2021/09/21 09:30:43;;;;;;;5.87;5.30;;;;;;;;;;5075974;28;20536;-69
2021/09/21 09:33:10;;;;;;;12.63;5.40;;;;;;;;;;5075708;28;21030;-70
2021/09/21 09:35:40;;;;;;;8.27;5.90;;;;;;;;;;5075515;28;20450;-69
2021/09/21 09:38:08;;;;;;;11.40;5.13;;;;;;;;;;5075496;28;20444;-69
2021/09/21 09:40:40;;;;;;;7.97;3.67;;;;;;;;;;5075678;28;20463;-69
2021/09/21 09:43:07;;;;;;;3.27;2.97;;;;;;;;;;5076158;28;20427;-69
2021/09/21 09:45:37;;;;;;;4.37;3.97;;;;;;;;;;5075613;28;20446;-69
2021/09/21 09:48:04;;;;;;;4.00;3.50;;;;;;;;;;5075514;28;20447;-69
2021/09/21 09:50:32;;;;;;;6.40;3.43;;;;;;;;;;5075513;28;20470;-70
2021/09/21 09:53:06;;;;;;;5.20;2.87;;;;;;;;;;5075110;28;20446;-69
2021/09/21 09:55:34;;;;;;;4.37;3.97;;;;;;;;;;5075346;28;20910;-70
2021/09/21 09:58:01;;;;;;;7.47;3.57;;;;;;;;;;5075544;28;20830;-70
2021/09/21 10:00:29;;;;;;;3.70;3.13;;;;;;;;;;5075432;28;20450;-69
2021/09/21 10:02:56;;;;;;;3.43;3.00;;;;;;;;;;5075079;28;20945;-70
2021/09/21 10:05:23;;;;;;;3.40;2.80;;;;;;;;;;5075360;28;20499;-69
2021/09/21 10:07:50;;;;;;;4.63;3.33;;;;;;;;;;5074794;28;20471;-69
2021/09/21 10:10:19;;;;;;;3.73;3.07;;;;;;;;;;5074888;28;20447;-71
2021/09/21 10:12:48;;;;;;;3.20;2.90;;;;;;;;;;5075213;28;20978;-70
2021/09/21 10:15:16;;;;;;;4.73;3.17;;;;;;;;;;5075506;28;20455;-70
2021/09/21 10:17:49;;;;;;;5.07;3.70;;;;;;;;;;5075185;28;20795;-69
2021/09/21 10:20:16;;;;;;;6.93;3.80;;;;;;;;;;5075114;28;20852;-70
2021/09/21 10:22:51;;;;;;;5.70;4.27;;;;;;;;;;5075046;28;20475;-69
2021/09/21 10:25:27;;;;;;;5.70;4.23;;;;;;;;;;5074692;28;20439;-69
2021/09/21 10:27:54;;;;;;;4.93;3.53;;;;;;;;;;5074986;28;20476;-69
2021/09/21 10:30:23;;;;;;;4.90;3.47;;;;;;;;;;5074739;28;20936;-70
2021/09/21 10:32:51;;;;;;;3.83;3.53;;;;;;;;;;5075245;28;20446;-70
2021/09/21 10:35:19;;;;;;;8.10;4.47;;;;;;;;;;5074360;28;20441;-70
2021/09/21 10:37:56;;;;;;;4.10;3.70;;;;;;;;;;5074587;28;20772;-70
2021/09/21 10:40:37;;;;;;;6.70;4.20;;;;;;;;;;5075149;28;20506;-70
2021/09/21 10:43:04;;;;;;;7.20;4.47;;;;;;;;;;5074629;28;20437;-70
2021/09/21 10:45:31;;;;;;;4.00;3.70;;;;;;;;;;5074527;28;20437;-70
2021/09/21 10:48:02;;;;;;;4.67;3.93;;;;;;;;;;5074147;28;20446;-69
2021/09/21 10:50:30;;;;;;;4.20;3.83;;;;;;;;;;5074510;28;20445;-70
2021/09/21 10:53:04;;;;;;;7.00;4.87;;;;;;;;;;5075196;28;20528;-70
2021/09/21 10:55:36;;;;;;;5.50;4.20;;;;;;;;;;5073957;28;20445;-69
2021/09/21 10:58:19;;;;;;;6.23;4.73;;;;;;;;;;5074129;28;20455;-69
2021/09/21 11:00:46;;;;;;;4.80;4.40;;;;;;;;;;5073724;28;20431;-69
2021/09/21 11:03:14;;;;;;;6.37;4.30;;;;;;;;;;5074074;28;20444;-71
2021/09/21 11:05:42;;;;;;;4.70;4.30;;;;;;;;;;5074866;28;20519;-70
2021/09/21 11:08:12;;;;;;;7.40;5.23;;;;;;;;;;5074057;28;20931;-69
2021/09/21 11:10:43;;;;;;;5.73;4.10;;;;;;;;;;5074012;28;20446;-69
2021/09/21 11:13:12;;;;;;;4.70;4.30;;;;;;;;;;5074418;28;20527;-69
2021/09/21 11:15:40;;;;;;;5.07;4.57;;;;;;;;;;5073977;28;20793;-70
2021/09/21 11:18:08;;;;;;;4.80;4.30;;;;;;;;;;5073653;28;20448;-71
2021/09/21 11:20:44;;;;;;;4.40;4.00;;;;;;;;;;5073491;28;20487;-69
2021/09/21 11:23:12;;;;;;;5.00;4.10;;;;;;;;;;5073943;28;20471;-70
2021/09/21 11:25:41;;;;;;;4.40;3.77;;;;;;;;;;5073860;28;20436;-70
2021/09/21 11:28:08;;;;;;;5.03;4.10;;;;;;;;;;5073840;28;20523;-69
2021/09/21 11:30:35;;;;;;;4.03;3.20;;;;;;;;;;5073425;28;20490;-69
2021/09/21 11:33:11;;;;;;;4.30;3.90;;;;;;;;;;5073903;28;20510;-70
2021/09/21 11:35:38;;;;;;;6.70;3.43;;;;;;;;;;5074327;28;20421;-70
2021/09/21 11:38:05;;;;;;;8.27;3.30;;;;;;;;;;5073595;28;20451;-70
2021/09/21 11:40:34;;;;;;;3.67;3.37;;;;;;;;;;5073291;28;20453;-69
2021/09/21 11:43:04;;;;;;;4.80;4.40;;;;;;;;;;5073526;28;20492;-70
2021/09/21 11:45:32;;;;;;;3.47;3.17;;;;;;;;;;5073621;28;20491;-70
2021/09/21 11:47:59;;;;;;;3.30;3.00;;;;;;;;;;5073682;28;20480;-69
2021/09/21 11:50:28;;;;;;;3.27;2.97;;;;;;;;;;5073148;28;20442;-69
2021/09/21 11:52:56;;;;;;;3.03;2.77;;;;;;;;;;5073533;28;20460;-70
2021/09/21 11:55:25;;;;;;;2.70;2.50;;;;;;;;;;5073511;28;20439;-70
2021/09/21 11:57:53;;;;;;;3.40;3.10;;;;;;;;;;5073235;28;20484;-69
2021/09/21 12:00:24;;;;;;;4.70;3.07;;;;;;;;;;5073086;28;20448;-69
2021/09/21 12:02:55;;;;;;;4.00;2.87;;;;;;;;;;5073563;28;20470;-70
2021/09/21 12:05:22;;;;;;;6.00;3.07;;;;;;;;;;5073075;28;21034;-70
2021/09/21 12:07:50;;;;;;;3.13;2.83;;;;;;;;;;5073262;28;20527;-70
2021/09/21 12:10:18;;;;;;;3.33;3.03;;;;;;;;;;5073336;28;20435;-69
2021/09/21 12:12:45;;;;;;;3.60;2.97;;;;;;;;;;5073284;28;20447;-69
2021/09/21 12:15:13;;;;;;;3.00;2.70;;;;;;;;;;5073744;28;20529;-69
2021/09/21 12:17:43;;;;;;;4.63;3.47;;;;;;;;;;5073471;28;20438;-69
2021/09/21 12:20:11;;;;;;;3.73;3.13;;;;;;;;;;5072925;28;20943;-70
2021/09/21 12:22:39;;;;;;;3.43;3.03;;;;;;;;;;5073575;28;20566;-69
2021/09/21 12:25:07;;;;;;;3.47;3.17;;;;;;;;;;5072873;28;20436;-69
2021/09/21 12:27:36;;;;;;;2.90;2.70;;;;;;;;;;5072503;28;20953;-69
2021/09/21 12:30:05;;;;;;;3.90;3.50;;;;;;;;;;5075136;28;20431;-70
2021/09/21 12:32:32;;;;;;;4.80;3.23;;;;;;;;;;5077155;28;20534;-69
2021/09/21 12:35:03;;;;;;;3.87;2.83;;;;;;;;;;5076678;28;20949;-69
2021/09/21 12:37:37;;;;;;;3.47;3.17;;;;;;;;;;5077432;28;20514;-69
2021/09/21 12:40:09;;;;;;;8.50;3.27;;;;;;;;;;5077046;28;20428;-69
2021/09/21 12:42:36;;;;;;;2.97;2.70;;;;;;;;;;5076436;28;20467;-69
2021/09/21 12:45:04;;;;;;;2.87;2.60;;;;;;;;;;5076544;28;20438;-70
2021/09/21 12:47:31;;;;;;;3.30;3.10;;;;;;;;;;5076721;28;20778;-72
2021/09/21 12:49:59;;;;;;;2.77;2.57;;;;;;;;;;5076271;28;20529;-72
2021/09/21 12:52:30;;;;;;;3.30;3.00;;;;;;;;;;5076704;28;20432;-73
2021/09/21 12:54:58;;;;;;;3.40;2.80;;;;;;;;;;5076368;28;20480;-72
2021/09/21 12:57:26;;;;;;;3.03;2.60;;;;;;;;;;5075728;28;20456;-73
2021/09/21 12:59:53;;;;;;;3.07;2.87;;;;;;;;;;5076494;28;20863;-72
2021/09/21 13:02:20;;;;;;;3.30;3.00;;;;;;;;;;5076062;28;20517;-74
2021/09/21 13:04:48;;;;;;;4.57;3.50;;;;;;;;;;5076400;28;20526;-74
2021/09/21 13:07:15;;;;;;;6.07;2.97;;;;;;;;;;5075551;28;20442;-73
2021/09/21 13:09:43;;;;;;;3.00;2.70;;;;;;;;;;5076269;28;20756;-73
2021/09/21 13:12:11;;;;;;;4.13;3.27;;;;;;;;;;5076731;28;20437;-74
2021/09/21 13:14:41;;;;;;;4.10;2.97;;;;;;;;;;5076763;28;20807;-73
2021/09/21 13:17:09;;;;;;;3.30;3.00;;;;;;;;;;5076618;28;20854;-73
2021/09/21 13:19:36;;;;;;;3.57;3.27;;;;;;;;;;5075824;28;20538;-72
2021/09/21 13:22:03;;;;;;;4.50;3.33;;;;;;;;;;5076372;28;20506;-73
2021/09/21 13:24:31;;;;;;;4.00;3.60;;;;;;;;;;5076723;28;20877;-74
2021/09/21 13:26:59;;;;;;;4.07;3.40;;;;;;;;;;5076074;28;20449;-73
2021/09/21 13:29:26;;;;;;;4.13;3.40;;;;;;;;;;5075722;28;20480;-73
2021/09/21 13:31:54;;;;;;;3.70;3.30;;;;;;;;;;5076430;28;20539;-73
2021/09/21 13:34:21;;;;;;;4.70;3.70;;;;;;;;;;5075899;28;20442;-74
2021/09/21 13:36:48;;;;;;;6.67;3.80;;;;;;;;;;5075812;28;20443;-73
2021/09/21 13:39:15;;;;;;;5.80;3.30;;;;;;;;;;5075699;28;20445;-72
2021/09/21 13:41:42;;;;;;;4.37;3.93;;;;;;;;;;5074469;28;20447;-72
2021/09/21 13:44:11;;;;;;;5.23;3.60;;;;;;;;;;5075690;28;20443;-72
2021/09/21 13:46:39;;;;;;;6.30;3.17;;;;;;;;;;5075600;28;20450;-73
2021/09/21 13:49:06;;;;;;;7.37;4.13;;;;;;;;;;5075271;28;20531;-77
2021/09/21 13:51:33;;;;;;;5.27;3.90;;;;;;;;;;5075116;28;20539;-76
2021/09/21 13:54:00;;;;;;;6.00;3.97;;;;;;;;;;5075508;28;20464;-75
2021/09/21 13:56:27;;;;;;;3.83;3.43;;;;;;;;;;5075749;28;20529;-76
2021/09/21 13:59:02;;;;;;;4.33;3.93;;;;;;;;;;5075668;28;20448;-74
2021/09/21 14:01:30;;;;;;;5.70;4.20;;;;;;;;;;5075174;28;20969;-74
2021/09/21 14:04:03;;;;;;;4.27;3.40;;;;;;;;;;5075286;28;20509;-73
2021/09/21 14:06:31;;;;;;;4.70;3.10;;;;;;;;;;5075718;28;20532;-74
2021/09/21 14:08:58;;;;;;;7.00;4.03;;;;;;;;;;5075182;28;20446;-73
2021/09/21 14:11:25;;;;;;;3.73;3.40;;;;;;;;;;5075195;28;20528;-74
2021/09/21 14:13:52;;;;;;;4.70;3.47;;;;;;;;;;5074862;28;20450;-73
2021/09/21 14:16:19;;;;;;;5.33;2.90;;;;;;;;;;5075124;28;20452;-73
2021/09/21 14:18:48;;;;;;;5.33;3.40;;;;;;;;;;5074743;28;20533;-74
2021/09/21 14:21:15;;;;;;;3.43;2.80;;;;;;;;;;5075014;28;20611;-74
2021/09/21 14:23:43;;;;;;;3.07;2.77;;;;;;;;;;5074497;28;21008;-73
2021/09/21 14:26:11;;;;;;;3.87;2.97;;;;;;;;;;5074898;28;20442;-74
2021/09/21 14:28:41;;;;;;;4.93;3.03;;;;;;;;;;5063550;28;20530;-74
2021/09/21 14:31:09;;;;;;;4.00;3.50;;;;;;;;;;5054969;28;20790;-74
2021/09/21 14:33:42;;;;;;;5.80;3.00;;;;;;;;;;5054823;28;20454;-73
2021/09/21 14:36:11;;;;;;;3.63;3.23;;;;;;;;;;5054945;28;20422;-74
2021/09/21 14:38:39;;;;;;;3.30;2.30;;;;;;;;;;5072094;28;20435;-74
2021/09/21 14:41:06;;;;;;;3.73;3.27;;;;;;;;;;5074249;28;20532;-74
2021/09/21 14:43:37;;;;;;;3.53;3.23;;;;;;;;;;5073758;28;20465;-74
2021/09/21 14:46:04;;;;;;;3.23;3.03;;;;;;;;;;5074443;28;20452;-74
2021/09/21 14:48:32;;;;;;;3.07;2.77;;;;;;;;;;5074986;28;20434;-74